Terminal Aerodrome Forecast
Issued by NWS St Louis, MO

Home | Current Version | Previous Version | Text Only | Print | Product List | Glossary On
Versions: 1 2 3 4 5 6 7 8 9 10 11 12 13 14 15 16 17 18 19 20 21
805
FTUS43 KLSX 302327
TAFCOU
TAF
KCOU 302327Z 0100/0124 24012KT P6SM BKN010 BKN040
     FM010100 22010G17KT P6SM VCSH BKN060
     FM010300 19007KT P6SM BKN090
     FM010500 20011G17KT P6SM BKN070
     FM011000 22014G24KT P6SM OVC015
     FM011900 26016G28KT P6SM OVC020=

USA.gov is the U.S. government's official web portal to all federal, state and local government web resources and services.